createdAt,value
2023-04-18T00:00:00.633Z,0.00
2023-04-18T00:01:00.655Z,0.00
2023-04-18T00:02:00.770Z,0.00
2023-04-18T00:03:03.236Z,0.00
2023-04-18T00:04:00.810Z,0.00
2023-04-18T00:05:00.830Z,0.00
2023-04-18T00:06:00.784Z,0.00
2023-04-18T00:07:00.781Z,0.00
2023-04-18T00:08:00.817Z,0.00
2023-04-18T00:09:00.890Z,0.00
2023-04-18T00:10:00.849Z,0.00
2023-04-18T00:11:00.858Z,0.00
2023-04-18T00:12:00.889Z,0.00
2023-04-18T00:13:00.939Z,0.00
2023-04-18T00:14:00.917Z,0.00
2023-04-18T00:15:00.934Z,0.00
2023-04-18T00:16:00.963Z,0.00
2023-04-18T00:17:01.005Z,0.00
2023-04-18T00:18:01.028Z,0.00
2023-04-18T00:19:01.019Z,0.00
2023-04-18T00:20:01.063Z,0.00
2023-04-18T00:21:01.061Z,0.00
2023-04-18T00:22:01.077Z,0.00
2023-04-18T00:23:01.097Z,0.00
2023-04-18T00:24:01.142Z,0.00
2023-04-18T00:25:01.143Z,0.00
2023-04-18T00:26:01.163Z,0.00
2023-04-18T00:27:01.184Z,0.00
2023-04-18T00:28:01.213Z,0.00
2023-04-18T00:29:01.224Z,0.00
2023-04-18T00:30:01.241Z,0.00
2023-04-18T00:31:01.275Z,0.00
2023-04-18T00:32:01.292Z,0.00
2023-04-18T00:33:01.334Z,0.00
2023-04-18T00:34:01.339Z,0.00
2023-04-18T00:35:01.344Z,0.00
2023-04-18T00:36:01.384Z,0.00
2023-04-18T00:37:01.402Z,0.00
2023-04-18T00:38:01.423Z,0.00
2023-04-18T00:39:01.437Z,0.00
2023-04-18T00:40:01.461Z,0.00
2023-04-18T00:41:01.468Z,0.00
2023-04-18T00:42:01.489Z,0.00
2023-04-18T00:43:01.514Z,0.00
2023-04-18T00:44:01.533Z,0.00
2023-04-18T00:45:01.596Z,0.00
2023-04-18T00:46:01.705Z,0.00
2023-04-18T00:47:01.592Z,0.00
2023-04-18T00:48:01.690Z,0.00
2023-04-18T00:49:01.632Z,0.00
2023-04-18T00:50:01.704Z,0.00
2023-04-18T00:51:01.675Z,0.00
2023-04-18T00:52:01.706Z,0.00
2023-04-18T00:53:01.753Z,0.00
2023-04-18T00:54:01.758Z,0.00
2023-04-18T00:55:01.768Z,0.00
2023-04-18T00:56:01.778Z,0.00
2023-04-18T00:57:01.799Z,0.00
2023-04-18T00:58:01.854Z,0.00
2023-04-18T00:59:01.859Z,0.00
2023-04-18T01:00:02.005Z,0.00
2023-04-18T01:01:01.884Z,0.00
2023-04-18T01:02:02.111Z,0.00
2023-04-18T01:03:02.123Z,0.00
2023-04-18T01:04:02.055Z,0.00
2023-04-18T01:05:01.972Z,0.00
2023-04-18T01:06:01.984Z,0.00
2023-04-18T01:07:02.021Z,0.00
2023-04-18T01:08:02.040Z,0.00
2023-04-18T01:09:02.110Z,0.00
2023-04-18T01:10:02.113Z,0.00
2023-04-18T01:11:02.096Z,0.00
2023-04-18T01:12:02.116Z,0.00
2023-04-18T01:13:02.125Z,0.00
2023-04-18T01:14:02.162Z,0.00
2023-04-18T01:15:02.177Z,0.00
2023-04-18T01:16:02.213Z,0.00
2023-04-18T01:17:02.291Z,0.00
2023-04-18T01:18:02.240Z,0.00
2023-04-18T01:19:02.251Z,0.00
2023-04-18T01:20:02.276Z,0.00
2023-04-18T01:21:02.302Z,0.00
2023-04-18T01:22:02.312Z,0.00
2023-04-18T01:23:02.331Z,0.00
2023-04-18T01:24:02.350Z,0.00
2023-04-18T01:25:02.384Z,0.00
2023-04-18T01:26:02.392Z,0.00
2023-04-18T01:27:02.409Z,0.00
2023-04-18T01:28:02.434Z,0.00
2023-04-18T01:29:02.455Z,0.00
2023-04-18T01:30:02.523Z,0.00
2023-04-18T01:31:02.518Z,0.00
2023-04-18T01:32:02.521Z,0.00
2023-04-18T01:33:02.575Z,0.00
2023-04-18T01:34:02.547Z,0.00
2023-04-18T01:35:02.572Z,0.00
2023-04-18T01:36:02.595Z,0.00
2023-04-18T01:37:02.612Z,0.00
2023-04-18T01:38:02.635Z,0.00
2023-04-18T01:39:02.651Z,0.00
2023-04-18T01:40:02.680Z,0.00
2023-04-18T01:41:02.699Z,0.00
2023-04-18T01:42:02.734Z,0.00
2023-04-18T01:43:02.739Z,0.00
2023-04-18T01:44:02.754Z,0.00
2023-04-18T01:45:02.780Z,0.00
2023-04-18T01:46:02.798Z,0.00
2023-04-18T01:47:02.916Z,0.00
2023-04-18T01:48:02.884Z,0.00
2023-04-18T01:49:02.866Z,0.00
2023-04-18T01:50:02.912Z,0.00
2023-04-18T01:51:02.898Z,0.00
2023-04-18T01:52:02.921Z,0.00
2023-04-18T01:53:02.947Z,0.00
2023-04-18T01:54:02.956Z,0.00
2023-04-18T01:55:02.976Z,0.00
2023-04-18T01:56:02.996Z,0.00
2023-04-18T01:57:03.030Z,0.00
2023-04-18T01:58:03.042Z,0.00
2023-04-18T01:59:03.092Z,0.00
2023-04-18T02:00:03.082Z,0.00
2023-04-18T02:01:03.153Z,0.00
2023-04-18T02:02:03.317Z,0.00
2023-04-18T02:03:03.251Z,0.00
2023-04-18T02:04:03.260Z,0.00
2023-04-18T02:05:03.184Z,0.00
2023-04-18T02:06:03.206Z,0.00
2023-04-18T02:07:03.220Z,0.00
2023-04-18T02:08:03.241Z,0.00
2023-04-18T02:09:03.262Z,0.00
2023-04-18T02:10:03.279Z,0.00
2023-04-18T02:11:03.300Z,0.00
2023-04-18T02:12:03.322Z,0.00
2023-04-18T02:13:03.361Z,0.00
2023-04-18T02:14:03.363Z,0.00
2023-04-18T02:15:03.388Z,0.00
2023-04-18T02:16:03.430Z,0.00
2023-04-18T02:17:03.430Z,0.00
2023-04-18T02:18:03.500Z,0.00
2023-04-18T02:19:03.464Z,0.00
2023-04-18T02:20:03.495Z,0.00
2023-04-18T02:21:03.505Z,0.00
2023-04-18T02:22:03.533Z,0.00
2023-04-18T02:23:03.558Z,0.00
2023-04-18T02:24:03.567Z,0.00
2023-04-18T02:25:03.589Z,0.00
2023-04-18T02:26:03.608Z,0.00
2023-04-18T02:27:03.626Z,0.00
2023-04-18T02:28:03.650Z,0.00
2023-04-18T02:29:03.674Z,0.00
2023-04-18T02:30:03.687Z,0.00
2023-04-18T02:31:03.715Z,0.00
2023-04-18T02:32:03.784Z,0.00
2023-04-18T02:33:03.807Z,0.00
2023-04-18T02:34:03.766Z,0.00
2023-04-18T02:35:03.790Z,0.00
2023-04-18T02:36:03.810Z,0.00
2023-04-18T02:37:03.832Z,0.00
2023-04-18T02:38:03.851Z,0.00
2023-04-18T02:39:03.871Z,0.00
2023-04-18T02:40:03.894Z,0.00
2023-04-18T02:41:03.912Z,0.00
2023-04-18T02:42:03.938Z,0.00
2023-04-18T02:43:03.959Z,0.00
2023-04-18T02:44:03.973Z,0.00
2023-04-18T02:45:04.010Z,0.00
2023-04-18T02:46:04.027Z,0.00
2023-04-18T02:47:04.036Z,0.00
2023-04-18T02:48:04.116Z,0.00
2023-04-18T02:49:04.089Z,0.00
2023-04-18T02:50:04.094Z,0.00
2023-04-18T02:51:04.119Z,0.00
2023-04-18T02:52:04.134Z,0.00
2023-04-18T02:53:04.152Z,0.00
2023-04-18T02:54:04.174Z,0.00
2023-04-18T02:55:04.196Z,0.00
2023-04-18T02:56:04.216Z,0.00
2023-04-18T02:57:04.243Z,0.00
2023-04-18T02:58:04.271Z,0.00
2023-04-18T02:59:04.293Z,0.00
2023-04-18T03:00:04.324Z,0.00
2023-04-18T03:01:04.333Z,0.00
2023-04-18T03:02:04.377Z,0.00
2023-04-18T03:03:04.578Z,0.00
2023-04-18T03:04:04.379Z,0.00
2023-04-18T03:05:04.448Z,0.00
2023-04-18T03:06:04.421Z,0.00
2023-04-18T03:07:04.439Z,0.00
2023-04-18T03:08:04.472Z,0.00
2023-04-18T03:09:04.479Z,0.00
2023-04-18T03:10:04.502Z,0.00
2023-04-18T03:11:04.519Z,0.00
2023-04-18T03:12:04.549Z,0.00
2023-04-18T03:13:04.561Z,0.00
2023-04-18T03:14:04.580Z,0.00
2023-04-18T03:15:04.604Z,0.00
2023-04-18T03:16:04.683Z,0.00
2023-04-18T03:17:04.641Z,0.00
2023-04-18T03:18:04.691Z,0.00
2023-04-18T03:19:04.682Z,0.00
2023-04-18T03:20:04.705Z,0.00
2023-04-18T03:21:04.728Z,0.00
2023-04-18T03:22:04.756Z,0.00
2023-04-18T03:23:04.767Z,0.00
2023-04-18T03:24:04.799Z,0.00
2023-04-18T03:25:04.809Z,0.00
2023-04-18T03:26:04.823Z,0.00
2023-04-18T03:27:04.848Z,0.00
2023-04-18T03:28:04.861Z,0.00
2023-04-18T03:29:04.886Z,0.00
2023-04-18T03:30:04.915Z,0.00
2023-04-18T03:31:04.967Z,0.00
2023-04-18T03:32:04.953Z,0.00
2023-04-18T03:33:04.967Z,0.00
2023-04-18T03:34:04.983Z,0.00
2023-04-18T03:35:05.046Z,0.00
2023-04-18T03:36:05.028Z,0.00
2023-04-18T03:37:05.047Z,0.00
2023-04-18T03:38:05.066Z,0.00
2023-04-18T03:39:05.086Z,0.00
2023-04-18T03:40:05.261Z,0.00
2023-04-18T03:41:05.129Z,0.00
2023-04-18T03:42:05.144Z,0.00
2023-04-18T03:43:05.171Z,0.00
2023-04-18T03:44:05.189Z,0.00
2023-04-18T03:45:05.208Z,0.00
2023-04-18T03:46:05.269Z,0.00
2023-04-18T03:47:05.245Z,0.00
2023-04-18T03:48:05.324Z,0.00
2023-04-18T03:49:05.288Z,0.00
2023-04-18T03:50:05.316Z,0.00
2023-04-18T03:51:05.323Z,0.00
2023-04-18T03:52:05.347Z,0.00
2023-04-18T03:53:05.375Z,0.00
2023-04-18T03:54:05.401Z,0.00
2023-04-18T03:55:05.413Z,0.00
2023-04-18T03:56:05.452Z,0.00
2023-04-18T03:57:05.457Z,0.00
2023-04-18T03:58:05.473Z,0.00
2023-04-18T03:59:05.490Z,0.00
2023-04-18T04:00:05.506Z,0.00
2023-04-18T04:01:05.529Z,0.00
2023-04-18T04:02:05.643Z,0.00
2023-04-18T04:03:05.754Z,0.00
2023-04-18T04:04:05.694Z,0.00
2023-04-18T04:05:05.710Z,0.00
2023-04-18T04:06:05.632Z,0.00
2023-04-18T04:07:05.648Z,0.00
2023-04-18T04:08:05.672Z,0.00
2023-04-18T04:09:05.695Z,0.00
2023-04-18T04:10:05.719Z,0.00
2023-04-18T04:11:05.735Z,0.00
2023-04-18T04:12:05.753Z,0.00
2023-04-18T04:13:05.771Z,0.00
2023-04-18T04:14:05.789Z,0.00
2023-04-18T04:15:05.808Z,0.00
2023-04-18T04:16:05.881Z,0.00
2023-04-18T04:17:05.856Z,0.00
2023-04-18T04:18:05.891Z,0.00
2023-04-18T04:19:05.894Z,0.00
2023-04-18T04:20:05.910Z,0.00
2023-04-18T04:21:05.944Z,0.00
2023-04-18T04:22:05.957Z,0.00
2023-04-18T04:23:05.978Z,0.00
2023-04-18T04:24:05.995Z,0.00
2023-04-18T04:25:06.016Z,5.63
2023-04-18T04:26:06.029Z,5.63
2023-04-18T04:27:06.120Z,5.63
2023-04-18T04:28:06.079Z,5.63
2023-04-18T04:29:06.084Z,5.63
2023-04-18T04:30:06.108Z,5.63
2023-04-18T04:31:06.130Z,11.25
2023-04-18T04:32:06.291Z,11.25
2023-04-18T04:33:06.327Z,11.25
2023-04-18T04:34:06.232Z,11.25
2023-04-18T04:35:06.210Z,5.63
2023-04-18T04:36:06.231Z,5.63
2023-04-18T04:37:06.249Z,5.63
2023-04-18T04:38:06.271Z,11.25
2023-04-18T04:39:06.287Z,11.25
2023-04-18T04:40:06.307Z,16.88
2023-04-18T04:41:06.345Z,16.88
2023-04-18T04:42:06.346Z,16.88
2023-04-18T04:43:06.369Z,16.88
2023-04-18T04:44:06.458Z,22.50
2023-04-18T04:45:06.441Z,22.50
2023-04-18T04:46:06.478Z,22.50
2023-04-18T04:47:06.450Z,28.13
2023-04-18T04:48:06.551Z,28.13
2023-04-18T04:49:06.493Z,33.75
2023-04-18T04:50:06.510Z,33.75
2023-04-18T04:51:06.527Z,33.75
2023-04-18T04:52:06.558Z,33.75
2023-04-18T04:53:06.563Z,39.38
2023-04-18T04:54:06.610Z,39.38
2023-04-18T04:55:06.609Z,45.00
2023-04-18T04:56:06.626Z,50.63
2023-04-18T04:57:06.653Z,50.63
2023-04-18T04:58:06.674Z,61.88
2023-04-18T04:59:06.687Z,61.88
2023-04-18T05:00:06.711Z,67.50
2023-04-18T05:01:06.855Z,73.13
2023-04-18T05:02:06.822Z,73.13
2023-04-18T05:03:06.885Z,78.75
2023-04-18T05:04:06.853Z,84.38
2023-04-18T05:05:06.809Z,84.38
2023-04-18T05:06:06.833Z,84.38
2023-04-18T05:07:06.849Z,78.75
2023-04-18T05:08:06.887Z,73.13
2023-04-18T05:09:06.891Z,67.50
2023-04-18T05:10:06.916Z,67.50
2023-04-18T05:11:06.931Z,67.50
2023-04-18T05:12:06.957Z,67.50
2023-04-18T05:13:06.986Z,61.88
2023-04-18T05:14:06.992Z,61.88
2023-04-18T05:15:07.011Z,67.50
2023-04-18T05:16:07.045Z,67.50
2023-04-18T05:17:07.097Z,67.50
2023-04-18T05:18:07.121Z,73.13
2023-04-18T05:19:07.098Z,73.13
2023-04-18T05:20:07.116Z,67.50
2023-04-18T05:21:07.134Z,45.00
2023-04-18T05:22:07.166Z,45.00
2023-04-18T05:23:07.181Z,39.38
2023-04-18T05:24:07.194Z,39.38
2023-04-18T05:25:07.219Z,39.38
2023-04-18T05:26:07.247Z,45.00
2023-04-18T05:27:07.286Z,45.00
2023-04-18T05:28:07.282Z,39.38
2023-04-18T05:29:07.304Z,45.00
2023-04-18T05:30:07.315Z,45.00
2023-04-18T05:31:07.425Z,45.00
2023-04-18T05:32:07.377Z,39.38
2023-04-18T05:33:07.415Z,45.00
2023-04-18T05:34:07.403Z,39.38
2023-04-18T05:35:07.433Z,39.38
2023-04-18T05:36:07.441Z,45.00
2023-04-18T05:37:07.474Z,39.38
2023-04-18T05:38:07.487Z,39.38
2023-04-18T05:39:07.506Z,45.00
2023-04-18T05:40:07.526Z,45.00
2023-04-18T05:41:07.554Z,50.63
2023-04-18T05:42:07.574Z,56.25
2023-04-18T05:43:07.592Z,61.88
2023-04-18T05:44:07.608Z,56.25
2023-04-18T05:45:07.627Z,50.63
2023-04-18T05:46:07.715Z,50.63
2023-04-18T05:47:07.667Z,56.25
2023-04-18T05:48:07.760Z,67.50
2023-04-18T05:49:07.708Z,73.13
2023-04-18T05:50:07.737Z,67.50
2023-04-18T05:51:08.064Z,67.50
2023-04-18T05:52:07.793Z,56.25
2023-04-18T05:53:07.803Z,61.88
2023-04-18T05:54:07.814Z,67.50
2023-04-18T05:55:07.840Z,67.50
2023-04-18T05:56:07.851Z,73.13
2023-04-18T05:57:07.880Z,61.88
2023-04-18T05:58:07.909Z,50.63
2023-04-18T05:59:07.910Z,61.88
2023-04-18T06:00:07.931Z,56.25
2023-04-18T06:01:07.960Z,67.50
2023-04-18T06:02:08.007Z,67.50
2023-04-18T06:03:10.626Z,61.88
2023-04-18T06:04:08.241Z,84.38
2023-04-18T06:05:08.306Z,95.63
2023-04-18T06:06:08.058Z,95.63
2023-04-18T06:07:08.078Z,101.25
2023-04-18T06:08:08.100Z,95.63
2023-04-18T06:09:08.111Z,118.13
2023-04-18T06:10:08.139Z,95.63
2023-04-18T06:11:08.154Z,90.00
2023-04-18T06:12:08.186Z,67.50
2023-04-18T06:13:08.194Z,73.13
2023-04-18T06:14:08.214Z,73.13
2023-04-18T06:15:08.233Z,78.75
2023-04-18T06:16:08.288Z,78.75
2023-04-18T06:17:08.279Z,84.38
2023-04-18T06:18:08.346Z,78.75
2023-04-18T06:19:08.323Z,73.13
2023-04-18T06:20:08.337Z,84.38
2023-04-18T06:21:08.368Z,90.00
2023-04-18T06:22:08.379Z,101.25
2023-04-18T06:23:08.400Z,90.00
2023-04-18T06:24:08.420Z,78.75
2023-04-18T06:25:08.439Z,90.00
2023-04-18T06:26:08.460Z,101.25
2023-04-18T06:27:17.559Z,90.00
2023-04-18T06:28:08.505Z,106.88
2023-04-18T06:29:08.520Z,95.63
2023-04-18T06:30:08.537Z,90.00
2023-04-18T06:31:08.671Z,90.00
2023-04-18T06:32:08.583Z,90.00
2023-04-18T06:33:08.666Z,140.63
2023-04-18T06:34:08.619Z,135.00
2023-04-18T06:35:08.652Z,140.63
2023-04-18T06:36:08.664Z,135.00
2023-04-18T06:37:08.696Z,135.00
2023-04-18T06:38:08.706Z,123.75
2023-04-18T06:39:08.722Z,118.13
2023-04-18T06:40:08.741Z,129.38
2023-04-18T06:41:08.763Z,146.25
2023-04-18T06:42:08.784Z,118.13
2023-04-18T06:43:08.805Z,123.75
2023-04-18T06:44:08.822Z,106.88
2023-04-18T06:45:08.851Z,106.88
2023-04-18T06:46:08.884Z,106.88
2023-04-18T06:47:08.900Z,106.88
2023-04-18T06:48:08.949Z,112.50
2023-04-18T06:49:08.935Z,112.50
2023-04-18T06:50:08.950Z,112.50
2023-04-18T06:51:08.969Z,112.50
2023-04-18T06:52:08.988Z,151.88
2023-04-18T06:53:09.009Z,151.88
2023-04-18T06:54:09.028Z,151.88
2023-04-18T06:55:09.057Z,146.25
2023-04-18T06:56:09.070Z,112.50
2023-04-18T06:57:09.091Z,135.00
2023-04-18T06:58:09.118Z,140.63
2023-04-18T06:59:09.132Z,151.88
2023-04-18T07:00:09.153Z,168.75
2023-04-18T07:01:09.229Z,185.63
2023-04-18T07:02:09.227Z,174.38
2023-04-18T07:03:10.852Z,163.13
2023-04-18T07:04:09.365Z,157.50
2023-04-18T07:05:09.256Z,151.88
2023-04-18T07:06:09.288Z,151.88
2023-04-18T07:07:09.294Z,163.13
2023-04-18T07:08:09.369Z,168.75
2023-04-18T07:09:09.338Z,140.63
2023-04-18T07:10:09.367Z,157.50
2023-04-18T07:11:09.378Z,140.63
2023-04-18T07:12:09.400Z,157.50
2023-04-18T07:13:09.416Z,191.25
2023-04-18T07:14:09.442Z,140.63
2023-04-18T07:15:09.461Z,118.13
2023-04-18T07:16:09.491Z,123.75
2023-04-18T07:17:09.611Z,135.00
2023-04-18T07:18:09.551Z,146.25
2023-04-18T07:19:09.548Z,151.88
2023-04-18T07:20:09.577Z,112.50
2023-04-18T07:21:09.588Z,95.63
2023-04-18T07:22:09.607Z,101.25
2023-04-18T07:23:09.626Z,101.25
2023-04-18T07:24:09.668Z,106.88
2023-04-18T07:25:09.672Z,106.88
2023-04-18T07:26:09.689Z,106.88
2023-04-18T07:27:09.705Z,135.00
2023-04-18T07:28:09.725Z,146.25
2023-04-18T07:29:09.759Z,225.00
2023-04-18T07:30:09.785Z,236.25
2023-04-18T07:31:09.795Z,213.75
2023-04-18T07:32:09.812Z,185.63
2023-04-18T07:33:09.832Z,191.25
2023-04-18T07:34:09.852Z,230.63
2023-04-18T07:35:09.874Z,247.50
2023-04-18T07:36:09.894Z,213.75
2023-04-18T07:37:09.914Z,315.00
2023-04-18T07:38:09.935Z,354.38
2023-04-18T07:39:09.965Z,309.38
2023-04-18T07:40:09.997Z,354.38
2023-04-18T07:41:10.002Z,298.13
2023-04-18T07:42:10.044Z,315.00
2023-04-18T07:43:10.045Z,343.13
2023-04-18T07:44:10.063Z,281.25
2023-04-18T07:45:10.088Z,213.75
2023-04-18T07:46:10.134Z,191.25
2023-04-18T07:47:10.285Z,180.00
2023-04-18T07:48:10.188Z,202.50
2023-04-18T07:49:10.179Z,230.63
2023-04-18T07:50:10.192Z,225.00
2023-04-18T07:51:10.216Z,236.25
2023-04-18T07:52:10.232Z,236.25
2023-04-18T07:53:10.266Z,241.88
2023-04-18T07:54:10.281Z,253.13
2023-04-18T07:55:10.305Z,247.50
2023-04-18T07:56:10.325Z,298.13
2023-04-18T07:57:10.342Z,241.88
2023-04-18T07:58:10.361Z,196.88
2023-04-18T07:59:10.384Z,191.25
2023-04-18T08:00:10.423Z,196.88
2023-04-18T08:01:10.456Z,225.00
2023-04-18T08:02:10.512Z,180.00
2023-04-18T08:03:10.659Z,180.00
2023-04-18T08:04:10.686Z,202.50
2023-04-18T08:05:10.626Z,196.88
2023-04-18T08:06:10.533Z,163.13
2023-04-18T08:07:10.561Z,185.63
2023-04-18T08:08:10.584Z,230.63
2023-04-18T08:09:10.598Z,236.25
2023-04-18T08:10:10.624Z,275.63
2023-04-18T08:11:10.643Z,303.75
2023-04-18T08:12:10.660Z,326.25
2023-04-18T08:13:10.681Z,315.00
2023-04-18T08:14:10.703Z,326.25
2023-04-18T08:15:10.729Z,354.38
2023-04-18T08:16:10.762Z,326.25
2023-04-18T08:17:10.763Z,219.38
2023-04-18T08:18:10.800Z,213.75
2023-04-18T08:19:10.859Z,247.50
2023-04-18T08:20:10.834Z,343.13
2023-04-18T08:21:10.859Z,393.75
2023-04-18T08:22:10.872Z,365.63
2023-04-18T08:23:13.023Z,292.50
2023-04-18T08:24:10.920Z,360.00
2023-04-18T08:25:10.940Z,376.88
2023-04-18T08:26:10.965Z,371.25
2023-04-18T08:27:10.980Z,444.38
2023-04-18T08:28:11.150Z,405.00
2023-04-18T08:29:11.043Z,365.63
2023-04-18T08:30:11.052Z,331.88
2023-04-18T08:31:11.090Z,315.00
2023-04-18T08:32:11.164Z,360.00
2023-04-18T08:33:11.131Z,343.13
2023-04-18T08:34:11.135Z,337.50
2023-04-18T08:35:11.153Z,371.25
2023-04-18T08:36:11.178Z,376.88
2023-04-18T08:37:11.209Z,320.63
2023-04-18T08:38:11.221Z,270.00
2023-04-18T08:39:11.314Z,298.13
2023-04-18T08:40:11.280Z,376.88
2023-04-18T08:41:11.300Z,371.25
2023-04-18T08:42:11.310Z,337.50
2023-04-18T08:43:11.329Z,348.75
2023-04-18T08:44:11.528Z,416.25
2023-04-18T08:45:11.384Z,433.13
2023-04-18T08:46:11.432Z,511.88
2023-04-18T08:47:11.429Z,568.13
2023-04-18T08:48:11.437Z,590.63
2023-04-18T08:49:12.183Z,568.13
2023-04-18T08:50:11.496Z,500.63
2023-04-18T08:51:11.524Z,388.13
2023-04-18T08:52:11.533Z,393.75
2023-04-18T08:53:11.554Z,348.75
2023-04-18T08:54:11.569Z,303.75
2023-04-18T08:55:11.596Z,326.25
2023-04-18T08:56:11.613Z,315.00
2023-04-18T08:57:11.635Z,315.00
2023-04-18T08:58:11.662Z,360.00
2023-04-18T08:59:11.726Z,371.25
2023-04-18T09:00:11.704Z,405.00
2023-04-18T09:01:11.817Z,461.25
2023-04-18T09:02:11.774Z,433.13
2023-04-18T09:03:11.810Z,489.38
2023-04-18T09:04:11.835Z,511.88
2023-04-18T09:05:11.827Z,410.63
2023-04-18T09:06:11.840Z,461.25
2023-04-18T09:07:11.861Z,556.88
2023-04-18T09:08:11.884Z,551.25
2023-04-18T09:09:12.033Z,551.25
2023-04-18T09:10:11.926Z,568.13
2023-04-18T09:11:11.951Z,534.38
2023-04-18T09:12:11.975Z,517.50
2023-04-18T09:13:11.996Z,500.63
2023-04-18T09:14:12.194Z,511.88
2023-04-18T09:15:12.041Z,517.50
2023-04-18T09:16:12.190Z,534.38
2023-04-18T09:17:12.090Z,495.00
2023-04-18T09:18:12.125Z,410.63
2023-04-18T09:19:12.536Z,354.38
2023-04-18T09:20:12.166Z,416.25
2023-04-18T09:21:12.187Z,528.75
2023-04-18T09:22:12.205Z,500.63
2023-04-18T09:23:12.231Z,450.00
2023-04-18T09:24:12.413Z,444.38
2023-04-18T09:25:12.275Z,472.50
2023-04-18T09:26:12.298Z,500.63
2023-04-18T09:27:12.320Z,556.88
2023-04-18T09:28:12.351Z,551.25
2023-04-18T09:29:12.506Z,579.38
2023-04-18T09:30:12.389Z,528.75
2023-04-18T09:31:12.481Z,528.75
2023-04-18T09:32:12.518Z,483.75
2023-04-18T09:33:12.458Z,455.63
2023-04-18T09:34:12.584Z,410.63
2023-04-18T09:35:12.540Z,382.50
2023-04-18T09:36:12.528Z,393.75
2023-04-18T09:37:12.598Z,444.38
2023-04-18T09:38:12.576Z,511.88
2023-04-18T09:39:12.922Z,495.00
2023-04-18T09:40:12.627Z,601.88
2023-04-18T09:41:12.644Z,562.50
2023-04-18T09:42:12.668Z,613.13
2023-04-18T09:43:12.691Z,607.50
2023-04-18T09:44:15.304Z,607.50
2023-04-18T09:45:12.752Z,534.38
2023-04-18T09:46:12.806Z,483.75
2023-04-18T09:47:12.788Z,382.50
2023-04-18T09:48:12.850Z,343.13
2023-04-18T09:49:13.072Z,416.25
2023-04-18T09:50:12.857Z,421.88
2023-04-18T09:51:12.875Z,478.13
2023-04-18T09:52:12.900Z,421.88
2023-04-18T09:53:12.953Z,360.00
2023-04-18T09:54:13.229Z,337.50
2023-04-18T09:55:12.975Z,371.25
2023-04-18T09:56:12.992Z,343.13
2023-04-18T09:57:13.024Z,337.50
2023-04-18T09:58:13.038Z,348.75
2023-04-18T09:59:13.433Z,410.63
2023-04-18T10:00:13.086Z,405.00
2023-04-18T10:01:13.175Z,416.25
2023-04-18T10:02:13.146Z,421.88
2023-04-18T10:03:13.360Z,388.13
2023-04-18T10:04:13.536Z,376.88
2023-04-18T10:05:13.214Z,405.00
2023-04-18T10:06:13.228Z,438.75
2023-04-18T10:07:13.243Z,438.75
2023-04-18T10:08:13.263Z,382.50
2023-04-18T10:09:13.504Z,371.25
2023-04-18T10:10:13.310Z,466.88
2023-04-18T10:11:13.339Z,495.00
2023-04-18T10:12:13.365Z,500.63
2023-04-18T10:13:13.377Z,579.38
2023-04-18T10:14:13.777Z,663.75
2023-04-18T10:15:13.425Z,630.00
2023-04-18T10:16:13.503Z,641.25
2023-04-18T10:17:13.476Z,630.00
2023-04-18T10:18:13.498Z,556.88
2023-04-18T10:19:13.740Z,540.00
2023-04-18T10:20:13.612Z,466.88
2023-04-18T10:21:13.564Z,489.38
2023-04-18T10:22:13.585Z,545.63
2023-04-18T10:23:13.608Z,613.13
2023-04-18T10:24:13.732Z,652.50
2023-04-18T10:25:13.660Z,540.00
2023-04-18T10:26:13.679Z,472.50
2023-04-18T10:27:13.707Z,416.25
2023-04-18T10:28:13.728Z,455.63
2023-04-18T10:29:13.931Z,483.75
2023-04-18T10:30:13.774Z,511.88
2023-04-18T10:31:13.845Z,545.63
2023-04-18T10:32:13.828Z,540.00
2023-04-18T10:33:21.965Z,517.50
2023-04-18T10:34:13.873Z,517.50
2023-04-18T10:35:13.892Z,573.75
2023-04-18T10:36:13.951Z,590.63
2023-04-18T10:37:13.946Z,624.38
2023-04-18T10:38:13.966Z,635.63
2023-04-18T10:39:13.992Z,607.50
2023-04-18T10:40:14.036Z,630.00
2023-04-18T10:41:14.036Z,618.75
2023-04-18T10:42:14.066Z,568.13
2023-04-18T10:43:14.085Z,545.63
2023-04-18T10:44:14.269Z,579.38
2023-04-18T10:45:14.136Z,466.88
2023-04-18T10:46:27.759Z,399.38
2023-04-18T10:47:14.210Z,393.75
2023-04-18T10:48:14.291Z,472.50
2023-04-18T10:49:14.450Z,534.38
2023-04-18T10:50:14.252Z,506.25
2023-04-18T10:51:14.274Z,438.75
2023-04-18T10:52:14.340Z,410.63
2023-04-18T10:53:14.342Z,450.00
2023-04-18T10:54:14.599Z,466.88
2023-04-18T10:55:14.386Z,500.63
2023-04-18T10:56:14.395Z,506.25
2023-04-18T10:57:14.415Z,506.25
2023-04-18T10:58:14.444Z,472.50
2023-04-18T10:59:14.468Z,405.00
2023-04-18T11:00:14.493Z,393.75
2023-04-18T11:01:14.627Z,371.25
2023-04-18T11:02:14.576Z,438.75
2023-04-18T11:03:14.686Z,495.00
2023-04-18T11:04:15.271Z,472.50
2023-04-18T11:05:14.608Z,410.63
2023-04-18T11:06:14.634Z,410.63
2023-04-18T11:07:14.664Z,489.38
2023-04-18T11:08:14.688Z,450.00
2023-04-18T11:09:14.707Z,416.25
2023-04-18T11:10:14.730Z,438.75
2023-04-18T11:11:14.756Z,405.00
2023-04-18T11:12:14.781Z,326.25
2023-04-18T11:13:14.817Z,320.63
2023-04-18T11:14:15.092Z,315.00
2023-04-18T11:15:14.850Z,354.38
2023-04-18T11:16:14.899Z,433.13
2023-04-18T11:17:14.898Z,511.88
2023-04-18T11:18:14.966Z,528.75
2023-04-18T11:19:14.947Z,427.50
2023-04-18T11:20:14.975Z,416.25
2023-04-18T11:21:15.003Z,472.50
2023-04-18T11:22:15.065Z,523.13
2023-04-18T11:23:15.047Z,562.50
2023-04-18T11:24:15.198Z,528.75
2023-04-18T11:25:15.100Z,556.88
2023-04-18T11:26:15.122Z,500.63
2023-04-18T11:27:15.133Z,495.00
2023-04-18T11:28:15.164Z,568.13
2023-04-18T11:29:15.188Z,506.25
2023-04-18T11:30:15.230Z,511.88
2023-04-18T11:31:15.233Z,545.63
2023-04-18T11:32:15.289Z,556.88
2023-04-18T11:33:15.312Z,523.13
2023-04-18T11:34:15.832Z,500.63
2023-04-18T11:35:15.329Z,506.25
2023-04-18T11:36:15.353Z,534.38
2023-04-18T11:37:15.380Z,585.00
2023-04-18T11:38:15.414Z,495.00
2023-04-18T11:39:15.428Z,410.63
2023-04-18T11:40:15.473Z,388.13
2023-04-18T11:41:15.480Z,472.50
2023-04-18T11:42:15.510Z,438.75
2023-04-18T11:43:15.527Z,573.75
2023-04-18T11:44:15.710Z,495.00
2023-04-18T11:45:15.597Z,421.88
2023-04-18T11:46:15.638Z,399.38
2023-04-18T11:47:15.626Z,405.00
2023-04-18T11:48:15.647Z,478.13
2023-04-18T11:49:15.675Z,365.63
2023-04-18T11:50:15.705Z,264.38
2023-04-18T11:51:15.721Z,247.50
2023-04-18T11:52:15.752Z,258.75
2023-04-18T11:53:15.765Z,298.13
2023-04-18T11:54:15.821Z,348.75
2023-04-18T11:55:15.819Z,376.88
2023-04-18T11:56:15.847Z,315.00
2023-04-18T11:57:15.867Z,281.25
2023-04-18T11:58:15.898Z,286.88
2023-04-18T11:59:15.918Z,286.88
2023-04-18T12:00:16.004Z,241.88
2023-04-18T12:01:15.991Z,236.25
2023-04-18T12:02:17.145Z,241.88
2023-04-18T12:03:16.254Z,241.88
2023-04-18T12:04:16.651Z,253.13
2023-04-18T12:05:16.235Z,303.75
2023-04-18T12:06:16.096Z,371.25
2023-04-18T12:07:16.113Z,450.00
2023-04-18T12:08:16.134Z,438.75
2023-04-18T12:09:16.184Z,450.00
2023-04-18T12:10:16.178Z,455.63
2023-04-18T12:11:16.205Z,444.38
2023-04-18T12:12:16.254Z,444.38
2023-04-18T12:13:16.256Z,438.75
2023-04-18T12:14:16.279Z,444.38
2023-04-18T12:15:16.328Z,421.88
2023-04-18T12:16:16.374Z,376.88
2023-04-18T12:17:16.346Z,331.88
2023-04-18T12:18:16.376Z,326.25
2023-04-18T12:19:16.403Z,303.75
2023-04-18T12:20:16.428Z,270.00
2023-04-18T12:21:16.447Z,253.13
2023-04-18T12:22:16.475Z,236.25
2023-04-18T12:23:16.497Z,253.13
2023-04-18T12:24:16.783Z,253.13
2023-04-18T12:25:16.544Z,247.50
2023-04-18T12:26:16.572Z,264.38
2023-04-18T12:27:16.590Z,264.38
2023-04-18T12:28:16.633Z,264.38
2023-04-18T12:29:16.640Z,281.25
2023-04-18T12:30:16.664Z,275.63
2023-04-18T12:31:16.724Z,275.63
2023-04-18T12:32:16.705Z,275.63
2023-04-18T12:33:16.734Z,253.13
2023-04-18T12:34:16.757Z,253.13
2023-04-18T12:35:16.779Z,270.00
2023-04-18T12:36:16.812Z,253.13
2023-04-18T12:37:16.828Z,264.38
2023-04-18T12:38:16.857Z,286.88
2023-04-18T12:39:16.878Z,348.75
2023-04-18T12:40:16.900Z,416.25
2023-04-18T12:41:16.929Z,427.50
2023-04-18T12:42:16.946Z,388.13
2023-04-18T12:43:16.966Z,320.63
2023-04-18T12:44:16.999Z,326.25
2023-04-18T12:45:17.023Z,298.13
2023-04-18T12:46:17.087Z,337.50
2023-04-18T12:47:17.085Z,298.13
2023-04-18T12:48:17.096Z,303.75
2023-04-18T12:49:17.115Z,348.75